createdAt,value
2022-09-10T00:01:38.251Z,0.50
2022-09-10T00:04:15.639Z,0.50
2022-09-10T00:06:44.874Z,0.22
2022-09-10T00:09:14.935Z,0.25
2022-09-10T00:11:43.280Z,0.47
2022-09-10T00:14:17.372Z,0.40
2022-09-10T00:16:45.369Z,0.30
2022-09-10T00:19:14.876Z,0.40
2022-09-10T00:21:45.377Z,0.40
2022-09-10T00:29:00.188Z,0.35
2022-09-10T00:31:31.904Z,0.40
2022-09-10T00:34:04.186Z,0.20
2022-09-10T00:36:38.451Z,0.40
2022-09-10T00:39:15.239Z,0.30
2022-09-10T00:41:47.424Z,0.40
2022-09-10T00:44:41.392Z,0.40
2022-09-10T00:47:23.704Z,0.95
2022-09-10T00:50:29.153Z,0.40
2022-09-10T00:53:07.337Z,0.40
2022-09-10T00:55:38.322Z,0.43
2022-09-10T00:58:10.361Z,0.35
2022-09-10T01:00:41.454Z,0.40
2022-09-10T01:03:32.862Z,0.30
2022-09-10T01:06:03.150Z,0.35
2022-09-10T01:08:32.098Z,0.47
2022-09-10T01:11:48.209Z,0.30
2022-09-10T01:14:21.151Z,0.32
2022-09-10T01:17:45.850Z,0.38
2022-09-10T01:20:40.492Z,0.50
2022-09-10T01:23:41.674Z,0.40
2022-09-10T01:26:49.373Z,0.30
2022-09-10T01:30:04.031Z,0.47
2022-09-10T01:33:17.960Z,0.40
2022-09-10T01:35:56.168Z,0.50
2022-09-10T01:38:32.457Z,0.40
2022-09-10T01:41:02.858Z,0.30
2022-09-10T01:43:36.122Z,0.20
2022-09-10T01:46:44.807Z,0.63
2022-09-10T01:49:32.145Z,0.40
2022-09-10T01:52:38.934Z,0.40
2022-09-10T01:55:17.894Z,0.40
2022-09-10T01:58:23.213Z,0.40
2022-09-10T02:01:29.472Z,0.30
2022-09-10T02:04:06.882Z,0.40
2022-09-10T02:06:40.214Z,0.40
2022-09-10T02:09:12.692Z,0.32
2022-09-10T02:11:54.193Z,0.35
2022-09-10T02:14:43.568Z,0.30
2022-09-10T02:17:20.896Z,0.30
2022-09-10T02:19:52.443Z,0.50
2022-09-10T02:22:23.977Z,0.50
2022-09-10T02:24:52.808Z,0.50
2022-09-10T02:27:21.376Z,0.38
2022-09-10T02:29:49.683Z,0.30
2022-09-10T02:32:18.996Z,0.57
2022-09-10T02:34:48.149Z,0.40
2022-09-10T02:37:16.900Z,0.43
2022-09-10T02:39:45.510Z,0.40
2022-09-10T02:42:17.168Z,0.30
2022-09-10T02:44:48.174Z,0.40
2022-09-10T02:47:18.363Z,0.30
2022-09-10T02:49:46.034Z,0.50
2022-09-10T02:52:14.952Z,0.25
2022-09-10T02:54:43.017Z,0.47
2022-09-10T02:57:12.504Z,0.50
2022-09-10T02:59:40.705Z,0.40
2022-09-10T03:02:10.066Z,0.60
2022-09-10T03:04:40.822Z,0.50
2022-09-10T03:07:08.719Z,0.40
2022-09-10T03:09:37.167Z,0.35
2022-09-10T03:12:07.043Z,0.40
2022-09-10T03:14:35.036Z,0.50
2022-09-10T03:17:04.031Z,0.40
2022-09-10T03:19:35.206Z,0.40
2022-09-10T03:22:04.585Z,0.47
2022-09-10T03:24:37.816Z,0.40
2022-09-10T03:27:08.520Z,0.40
2022-09-10T03:29:36.968Z,0.38
2022-09-10T03:32:06.925Z,0.30
2022-09-10T03:34:35.263Z,0.63
2022-09-10T03:37:03.540Z,0.43
2022-09-10T03:39:32.680Z,0.40
2022-09-10T03:42:00.484Z,0.30
2022-09-10T03:44:30.583Z,0.40
2022-09-10T03:46:59.109Z,0.30
2022-09-10T03:49:30.595Z,0.30
2022-09-10T03:52:00.517Z,0.40
2022-09-10T03:54:29.263Z,0.30
2022-09-10T03:56:57.312Z,0.30
2022-09-10T03:59:25.098Z,0.45
2022-09-10T04:01:59.255Z,0.40
2022-09-10T04:04:27.569Z,0.40
2022-09-10T04:06:56.465Z,0.43
2022-09-10T04:09:24.427Z,0.60
2022-09-10T04:11:54.640Z,0.47
2022-09-10T04:14:26.993Z,0.40
2022-09-10T04:16:56.256Z,0.40
2022-09-10T04:19:25.120Z,0.40
2022-09-10T04:21:53.340Z,0.60
2022-09-10T04:24:22.345Z,0.40
2022-09-10T04:26:51.132Z,0.50
2022-09-10T04:29:20.040Z,0.47
2022-09-10T04:31:48.427Z,0.50
2022-09-10T04:34:19.723Z,0.47
2022-09-10T04:36:47.817Z,0.38
2022-09-10T04:39:18.402Z,0.65
2022-09-10T04:41:48.797Z,0.65
2022-09-10T04:44:20.376Z,0.30
2022-09-10T04:46:49.075Z,0.68
2022-09-10T04:49:18.321Z,0.38
2022-09-10T04:51:46.888Z,0.40
2022-09-10T04:54:16.786Z,0.40
2022-09-10T04:56:47.971Z,0.35
2022-09-10T04:59:16.728Z,0.50
2022-09-10T05:01:51.699Z,0.60
2022-09-10T05:04:19.876Z,0.30
2022-09-10T05:06:50.527Z,0.35
2022-09-10T05:09:19.361Z,0.50
2022-09-10T05:11:50.110Z,0.47
2022-09-10T05:14:21.084Z,0.40
2022-09-10T05:16:50.145Z,0.43
2022-09-10T05:19:26.486Z,0.50
2022-09-10T05:22:00.496Z,0.55
2022-09-10T05:24:29.139Z,0.40
2022-09-10T05:26:59.503Z,0.40
2022-09-10T05:29:27.838Z,0.60
2022-09-10T05:31:55.856Z,0.40
2022-09-10T05:34:26.124Z,0.40
2022-09-10T05:36:55.853Z,0.45
2022-09-10T05:39:24.196Z,0.40
2022-09-10T05:41:53.093Z,0.52
2022-09-10T05:44:22.872Z,0.32
2022-09-10T05:46:50.847Z,0.40
2022-09-10T05:49:19.186Z,0.35
2022-09-10T05:51:48.769Z,0.40
2022-09-10T05:54:19.196Z,0.40
2022-09-10T05:56:48.789Z,0.30
2022-09-10T05:59:18.137Z,0.52
2022-09-10T06:01:53.410Z,0.50
2022-09-10T06:04:24.246Z,0.47
2022-09-10T06:06:54.420Z,0.47
2022-09-10T06:09:23.359Z,0.40
2022-09-10T06:12:00.428Z,0.50
2022-09-10T06:14:30.334Z,0.50
2022-09-10T06:16:59.322Z,0.40
2022-09-10T06:19:31.748Z,0.60
2022-09-10T06:22:00.191Z,0.57
2022-09-10T06:24:29.741Z,0.50
2022-09-10T06:26:58.804Z,0.57
2022-09-10T06:29:49.943Z,0.50
2022-09-10T06:32:39.741Z,0.63
2022-09-10T06:37:38.646Z,0.40
2022-09-10T06:40:10.141Z,0.50
2022-09-10T06:42:39.267Z,0.70
2022-09-10T06:45:28.431Z,0.60
2022-09-10T06:48:47.609Z,0.50
2022-09-10T06:51:17.760Z,0.60
2022-09-10T06:53:46.982Z,0.32
2022-09-10T06:56:18.427Z,0.40
2022-09-10T06:58:46.853Z,0.47
2022-09-10T07:01:19.610Z,0.50
2022-09-10T07:03:57.891Z,0.80
2022-09-10T07:06:35.967Z,0.88
2022-09-10T07:09:11.362Z,1.02
2022-09-10T07:11:58.345Z,0.57
2022-09-10T07:14:29.642Z,0.47
2022-09-10T07:17:02.467Z,0.40
2022-09-10T07:19:33.421Z,0.47
2022-09-10T07:22:01.793Z,0.70
2022-09-10T07:24:33.724Z,0.60
2022-09-10T07:27:11.417Z,0.70
2022-09-10T07:29:42.890Z,0.40
2022-09-10T07:32:27.653Z,0.77
2022-09-10T07:35:10.666Z,0.50
2022-09-10T07:37:40.217Z,0.68
2022-09-10T07:40:11.887Z,0.45
2022-09-10T07:42:40.357Z,0.50
2022-09-10T07:45:16.219Z,1.20
2022-09-10T07:47:44.771Z,0.80
2022-09-10T07:50:14.943Z,0.75
2022-09-10T07:52:43.067Z,0.65
2022-09-10T07:55:13.269Z,0.70
2022-09-10T07:57:42.161Z,0.40
2022-09-10T08:00:18.422Z,0.55
2022-09-10T08:02:53.753Z,0.68
2022-09-10T08:05:24.207Z,0.85
2022-09-10T08:07:57.518Z,0.60
2022-09-10T08:10:28.033Z,0.45
2022-09-10T08:12:59.596Z,0.60
2022-09-10T08:15:27.828Z,0.60
2022-09-10T08:17:58.858Z,0.52
2022-09-10T08:20:27.349Z,0.80
2022-09-10T08:22:57.404Z,0.60
2022-09-10T08:25:29.154Z,0.50
2022-09-10T08:30:30.431Z,0.50
2022-09-10T08:32:58.758Z,0.90
2022-09-10T08:35:27.545Z,0.80
2022-09-10T08:37:55.533Z,0.55
2022-09-10T08:40:23.668Z,0.60
2022-09-10T08:42:52.914Z,0.60
2022-09-10T08:45:27.550Z,0.52
2022-09-10T08:48:16.628Z,0.60
2022-09-10T08:50:55.785Z,0.40
2022-09-10T08:53:54.270Z,0.70
2022-09-10T08:56:24.601Z,0.47
2022-09-10T08:59:21.610Z,0.52
2022-09-10T09:01:56.970Z,0.60
2022-09-10T09:05:06.475Z,0.60
2022-09-10T09:07:40.252Z,0.60
2022-09-10T09:10:46.607Z,0.55
2022-09-10T09:13:35.343Z,0.60
2022-09-10T09:16:31.138Z,0.52
2022-09-10T09:19:39.002Z,0.70
2022-09-10T09:22:23.561Z,0.60
2022-09-10T09:25:07.795Z,0.70
2022-09-10T09:27:41.451Z,0.55
2022-09-10T09:30:24.109Z,0.52
2022-09-10T09:32:54.857Z,0.50
2022-09-10T09:35:38.988Z,0.55
2022-09-10T09:38:07.847Z,0.93
2022-09-10T09:40:52.575Z,0.70
2022-09-10T09:43:43.544Z,0.73
2022-09-10T09:46:21.037Z,0.63
2022-09-10T09:48:56.267Z,0.55
2022-09-10T09:51:30.982Z,0.63
2022-09-10T09:54:39.179Z,0.80
2022-09-10T09:56:54.601Z,0.65
2022-09-10T09:59:35.010Z,0.75
2022-09-10T10:02:29.170Z,0.57
2022-09-10T10:05:24.026Z,0.60
2022-09-10T10:07:52.683Z,1.20
2022-09-10T10:10:27.457Z,0.82
2022-09-10T10:12:57.115Z,0.68
2022-09-10T10:15:41.852Z,0.70
2022-09-10T10:18:36.776Z,0.50
2022-09-10T10:21:15.120Z,0.50
2022-09-10T10:23:43.857Z,0.70
2022-09-10T10:26:38.406Z,0.50
2022-09-10T10:29:18.450Z,0.90
2022-09-10T10:31:49.755Z,0.70
2022-09-10T10:35:19.192Z,0.70
2022-09-10T10:38:08.281Z,0.60
2022-09-10T10:41:03.730Z,0.60
2022-09-10T10:43:42.021Z,0.63
2022-09-10T10:46:21.644Z,0.88
2022-09-10T10:49:38.082Z,0.73
2022-09-10T10:52:26.635Z,0.63
2022-09-10T10:55:14.406Z,1.00
2022-09-10T10:58:06.490Z,0.60
2022-09-10T11:00:53.473Z,0.60
2022-09-10T11:03:53.192Z,0.45
2022-09-10T11:06:27.292Z,0.80
2022-09-10T11:09:21.660Z,0.60
2022-09-10T11:12:03.367Z,0.60
2022-09-10T11:15:02.653Z,0.70
2022-09-10T11:17:51.965Z,0.60
2022-09-10T11:20:36.249Z,0.50
2022-09-10T11:23:34.405Z,0.50
2022-09-10T11:26:18.371Z,0.70
2022-09-10T11:29:36.368Z,0.80
2022-09-10T11:32:36.707Z,0.70
2022-09-10T11:35:19.919Z,0.90
2022-09-10T11:38:10.534Z,0.82
2022-09-10T11:41:19.278Z,0.80
2022-09-10T11:44:29.213Z,0.60
2022-09-10T11:47:11.556Z,0.70
2022-09-10T11:50:33.838Z,1.00
2022-09-10T11:53:07.964Z,0.60
2022-09-10T11:55:42.334Z,0.98
2022-09-10T11:58:49.448Z,0.70
2022-09-10T12:02:08.303Z,0.70
2022-09-10T12:05:28.731Z,0.70
2022-09-10T12:08:24.829Z,0.60
2022-09-10T12:11:55.334Z,1.02
2022-09-10T12:14:25.754Z,0.60
2022-09-10T12:17:27.235Z,0.70
2022-09-10T12:22:39.935Z,0.60
2022-09-10T12:25:31.659Z,0.90
2022-09-10T12:28:43.648Z,0.52
2022-09-10T12:32:29.152Z,0.63
2022-09-10T12:35:35.771Z,0.80
2022-09-10T12:39:03.600Z,0.60
2022-09-10T12:41:31.382Z,0.60
2022-09-10T12:44:01.508Z,0.70
2022-09-10T12:46:32.107Z,0.55
2022-09-10T12:49:13.391Z,0.75
2022-09-10T12:51:49.962Z,0.40
2022-09-10T12:54:41.065Z,0.73
2022-09-10T12:57:58.854Z,0.50
2022-09-10T13:00:56.397Z,0.47
2022-09-10T13:03:30.307Z,0.60
2022-09-10T13:06:04.276Z,0.50
2022-09-10T13:08:43.928Z,0.95
2022-09-10T13:11:21.241Z,1.25
2022-09-10T13:13:49.014Z,0.80
2022-09-10T13:16:28.311Z,0.40
2022-09-10T13:19:14.620Z,0.60
2022-09-10T13:21:45.484Z,0.47
2022-09-10T13:24:34.357Z,0.45
2022-09-10T13:27:41.933Z,0.90
2022-09-10T13:30:23.131Z,0.50
2022-09-10T13:33:11.643Z,0.70
2022-09-10T13:35:49.424Z,0.65
2022-09-10T13:39:03.585Z,0.50
2022-09-10T13:42:26.215Z,0.85
2022-09-10T13:45:27.081Z,0.80
2022-09-10T13:48:21.566Z,0.70
2022-09-10T13:50:58.431Z,0.70
2022-09-10T13:53:32.719Z,0.70
2022-09-10T13:56:12.371Z,0.90
2022-09-10T13:58:56.841Z,0.80
2022-09-10T14:01:55.234Z,0.80
2022-09-10T14:04:29.932Z,0.70
2022-09-10T14:07:17.633Z,0.90
2022-09-10T14:09:50.548Z,0.95
2022-09-10T14:12:23.548Z,0.90
2022-09-10T14:14:57.187Z,0.70
2022-09-10T14:17:43.726Z,0.80
2022-09-10T14:20:25.877Z,0.70
2022-09-10T14:25:45.504Z,0.70
2022-09-10T14:28:23.743Z,0.90
2022-09-10T14:31:14.163Z,0.90
2022-09-10T14:33:43.517Z,0.98
2022-09-10T14:36:23.601Z,0.90
2022-09-10T14:38:58.944Z,0.95
2022-09-10T14:41:31.551Z,0.77
2022-09-10T14:44:22.296Z,0.70
2022-09-10T14:47:00.223Z,0.40
2022-09-10T14:49:41.527Z,0.43
2022-09-10T14:52:11.988Z,0.55
2022-09-10T14:54:40.388Z,0.70
2022-09-10T14:57:14.934Z,0.43
2022-09-10T14:59:48.966Z,0.60
2022-09-10T15:02:31.236Z,0.70
2022-09-10T15:05:01.073Z,0.50
2022-09-10T15:07:31.901Z,0.50
2022-09-10T15:10:01.671Z,0.50
2022-09-10T15:12:32.338Z,0.45
2022-09-10T15:15:01.762Z,0.40
2022-09-10T15:17:29.983Z,0.57
2022-09-10T15:19:58.058Z,0.57
2022-09-10T15:22:30.146Z,0.40
2022-09-10T15:25:09.494Z,0.30
2022-09-10T15:27:39.046Z,0.40
2022-09-10T15:30:08.002Z,0.40
2022-09-10T15:32:36.042Z,0.38
2022-09-10T15:35:05.524Z,0.40
2022-09-10T15:37:34.044Z,0.30
2022-09-10T15:40:04.438Z,0.40
2022-09-10T15:45:02.843Z,0.50
2022-09-10T15:47:33.903Z,0.47
2022-09-10T15:50:05.138Z,0.40
2022-09-10T15:55:01.429Z,0.50
2022-09-10T15:57:34.032Z,0.65
2022-09-10T16:00:05.240Z,0.50
2022-09-10T16:02:34.196Z,0.60
2022-09-10T16:05:02.533Z,0.50
2022-09-10T16:07:30.837Z,0.50
2022-09-10T16:09:58.825Z,0.40
2022-09-10T16:12:27.431Z,0.40
2022-09-10T16:14:55.492Z,0.50
2022-09-10T16:17:24.810Z,0.40
2022-09-10T16:19:54.620Z,0.60
2022-09-10T16:22:22.519Z,0.43
2022-09-10T16:24:50.919Z,0.40
2022-09-10T16:27:19.871Z,0.40
2022-09-10T16:29:48.529Z,0.50
2022-09-10T16:32:18.194Z,0.40
2022-09-10T16:34:46.281Z,0.40
2022-09-10T16:37:14.269Z,0.30
2022-09-10T16:39:42.502Z,0.40
2022-09-10T16:42:10.969Z,0.50
2022-09-10T16:44:41.644Z,0.52
2022-09-10T16:47:09.622Z,0.40
2022-09-10T16:49:38.658Z,0.70
2022-09-10T16:52:06.892Z,0.80
2022-09-10T16:54:35.274Z,0.60
2022-09-10T16:57:04.071Z,0.55
2022-09-10T16:59:32.347Z,0.57
2022-09-10T17:02:01.198Z,0.50
2022-09-10T17:04:29.615Z,0.65
2022-09-10T17:06:58.406Z,0.80
2022-09-10T17:09:28.183Z,0.60
2022-09-10T17:11:56.418Z,0.70
2022-09-10T17:14:24.673Z,0.70
2022-09-10T17:16:53.773Z,0.88
2022-09-10T17:19:24.655Z,0.75
2022-09-10T17:21:56.087Z,0.68
2022-09-10T17:26:55.774Z,0.77
2022-09-10T17:29:26.191Z,1.30
2022-09-10T17:31:58.300Z,1.40
2022-09-10T17:34:27.287Z,1.00
2022-09-10T17:36:56.231Z,0.80
2022-09-10T17:39:28.199Z,0.60
2022-09-10T17:41:58.951Z,0.85
2022-09-10T17:44:30.506Z,0.80
2022-09-10T17:46:58.825Z,0.65
2022-09-10T17:49:27.141Z,0.73
2022-09-10T17:51:58.048Z,0.80
2022-09-10T17:54:26.699Z,0.80
2022-09-10T17:56:54.929Z,0.80
2022-09-10T17:59:24.949Z,0.77
2022-09-10T18:01:53.048Z,1.00
2022-09-10T18:04:22.026Z,0.73
2022-09-10T18:06:52.545Z,0.80
2022-09-10T18:09:22.198Z,0.80
2022-09-10T18:11:50.499Z,1.00
2022-09-10T18:14:21.928Z,0.82
2022-09-10T18:19:20.514Z,0.93
2022-09-10T18:21:49.747Z,1.00
2022-09-10T18:24:22.833Z,0.93
2022-09-10T18:26:57.504Z,0.80
2022-09-10T18:29:45.652Z,0.90
2022-09-10T18:32:34.587Z,0.70
2022-09-10T18:35:03.046Z,0.70
2022-09-10T18:37:31.125Z,0.80
2022-09-10T18:40:00.417Z,0.98
2022-09-10T18:42:28.606Z,0.77
2022-09-10T18:44:58.720Z,0.68
2022-09-10T18:47:44.056Z,0.80
2022-09-10T18:50:14.002Z,0.80
2022-09-10T18:52:42.151Z,1.02
2022-09-10T18:55:11.114Z,1.02
2022-09-10T18:57:41.977Z,0.80
2022-09-10T19:00:11.411Z,0.90
2022-09-10T19:02:39.987Z,0.88
2022-09-10T19:05:12.255Z,0.90
2022-09-10T19:07:42.051Z,1.02
2022-09-10T19:10:10.462Z,0.90
2022-09-10T19:12:39.413Z,0.82
2022-09-10T19:15:10.882Z,1.27
2022-09-10T19:17:39.907Z,0.80
2022-09-10T19:20:10.116Z,0.90
2022-09-10T19:22:41.139Z,0.73
2022-09-10T19:25:09.838Z,0.80
2022-09-10T19:27:39.141Z,0.80
2022-09-10T19:30:08.163Z,1.10
2022-09-10T19:32:36.343Z,0.85
2022-09-10T19:35:06.379Z,0.75
2022-09-10T19:37:36.024Z,0.93
2022-09-10T19:40:04.341Z,0.85
2022-09-10T19:42:32.343Z,1.08
2022-09-10T19:45:01.340Z,0.80
2022-09-10T19:47:29.771Z,0.70
2022-09-10T19:49:59.219Z,0.77
2022-09-10T19:52:29.011Z,0.85
2022-09-10T19:54:57.942Z,0.70
2022-09-10T19:57:26.523Z,0.70
2022-09-10T19:59:55.745Z,0.63
2022-09-10T20:02:25.121Z,0.60
2022-09-10T20:04:53.786Z,0.55
2022-09-10T20:07:21.831Z,0.60
2022-09-10T20:09:49.832Z,0.52
2022-09-10T20:12:17.996Z,0.70
2022-09-10T20:14:45.924Z,0.60
2022-09-10T20:17:16.296Z,0.50
2022-09-10T20:19:44.428Z,0.55
2022-09-10T20:22:14.787Z,0.60
2022-09-10T20:24:43.089Z,0.60
2022-09-10T20:27:11.550Z,0.50
2022-09-10T20:29:41.430Z,0.95
2022-09-10T20:32:09.511Z,0.60
2022-09-10T20:34:37.377Z,0.60
2022-09-10T20:37:05.252Z,0.60
2022-09-10T20:39:34.728Z,0.90
2022-09-10T20:42:03.332Z,0.70
2022-09-10T20:44:33.082Z,0.70
2022-09-10T20:47:01.046Z,0.70
2022-09-10T20:49:29.219Z,0.65
2022-09-10T20:51:57.197Z,0.60
2022-09-10T20:54:25.678Z,0.60
2022-09-10T20:56:53.584Z,0.68
2022-09-10T20:59:24.380Z,0.85
2022-09-10T21:01:56.587Z,0.70
2022-09-10T21:04:26.753Z,0.60
2022-09-10T21:06:55.321Z,0.77
2022-09-10T21:09:23.279Z,0.60
2022-09-10T21:11:51.629Z,0.70
2022-09-10T21:14:19.537Z,0.60
2022-09-10T21:16:47.736Z,0.70
2022-09-10T21:19:17.425Z,0.80
2022-09-10T21:21:46.329Z,0.70
2022-09-10T21:24:22.451Z,0.52
2022-09-10T21:26:50.975Z,0.85
2022-09-10T21:29:21.133Z,0.90
2022-09-10T21:31:54.720Z,0.75
2022-09-10T21:34:23.581Z,1.05
2022-09-10T21:36:51.782Z,0.80
2022-09-10T21:39:19.913Z,1.25
2022-09-10T21:41:50.745Z,0.77
2022-09-10T21:44:22.286Z,0.77
2022-09-10T21:46:51.975Z,0.73
2022-09-10T21:49:21.052Z,0.60
2022-09-10T21:51:49.267Z,0.77
2022-09-10T21:54:20.894Z,0.85
2022-09-10T21:56:52.273Z,0.60
2022-09-10T22:01:49.991Z,0.85
2022-09-10T22:04:22.515Z,0.80
2022-09-10T22:06:52.887Z,0.80
2022-09-10T22:09:21.540Z,0.80
2022-09-10T22:11:54.061Z,0.75
2022-09-10T22:14:24.219Z,0.70
2022-09-10T22:16:53.592Z,0.70
2022-09-10T22:19:27.232Z,0.73
2022-09-10T22:21:57.123Z,0.65
2022-09-10T22:24:26.177Z,0.90
2022-09-10T22:26:54.815Z,0.77
2022-09-10T22:29:24.946Z,0.70
2022-09-10T22:31:52.825Z,0.80
2022-09-10T22:34:20.842Z,0.60
2022-09-10T22:36:49.757Z,0.90
2022-09-10T22:39:20.772Z,1.00
2022-09-10T22:41:51.209Z,0.88
2022-09-10T22:44:20.006Z,0.85
2022-09-10T22:46:50.144Z,0.70
2022-09-10T22:49:18.308Z,0.70
2022-09-10T22:51:47.270Z,0.82
2022-09-10T22:54:18.829Z,1.00
2022-09-10T22:56:46.773Z,0.80
2022-09-10T22:59:16.101Z,0.90
2022-09-10T23:01:48.856Z,0.80
2022-09-10T23:04:17.502Z,0.70
2022-09-10T23:06:45.455Z,1.10
2022-09-10T23:09:17.865Z,0.90
2022-09-10T23:11:46.190Z,0.70
2022-09-10T23:14:19.050Z,0.80
2022-09-10T23:16:50.800Z,0.88
2022-09-10T23:19:24.894Z,1.00
2022-09-10T23:21:54.987Z,0.70
2022-09-10T23:24:24.954Z,0.85
2022-09-10T23:26:53.847Z,0.80
2022-09-10T23:29:23.981Z,0.90
2022-09-10T23:31:56.031Z,0.90
2022-09-10T23:34:24.435Z,0.90
2022-09-10T23:36:52.647Z,0.95
2022-09-10T23:39:23.831Z,1.10
2022-09-10T23:41:56.843Z,1.10
2022-09-10T23:44:25.684Z,0.98
2022-09-10T23:46:53.799Z,1.00
2022-09-10T23:49:24.543Z,1.00
2022-09-10T23:51:53.072Z,0.80
2022-09-10T23:54:21.378Z,1.05
2022-09-10T23:56:49.446Z,0.88
2022-09-10T23:59:17.965Z,0.98
